createdAt,value
2019-05-06T00:01:09.136Z,66.20
2019-05-06T00:03:10.805Z,66.80
2019-05-06T00:05:14.295Z,65.90
2019-05-06T00:07:16.069Z,66.40
2019-05-06T00:09:18.232Z,68.70
2019-05-06T00:11:19.900Z,67.80
2019-05-06T00:13:21.560Z,68.70
2019-05-06T00:15:23.498Z,68.80
2019-05-06T00:17:25.549Z,68.50
2019-05-06T00:19:27.207Z,68.60
2019-05-06T00:21:28.898Z,71.20
2019-05-06T00:23:38.205Z,70.50
2019-05-06T00:25:59.708Z,70.80
2019-05-06T00:28:20.000Z,70.40
2019-05-06T00:30:21.717Z,70.10
2019-05-06T00:32:24.339Z,69.40
2019-05-06T00:34:26.593Z,71.70
2019-05-06T00:36:28.277Z,71.80
2019-05-06T00:38:29.956Z,71.00
2019-05-06T00:40:34.911Z,72.50
2019-05-06T00:42:40.373Z,71.60
2019-05-06T00:44:44.257Z,73.40
2019-05-06T00:46:45.913Z,72.70
2019-05-06T00:48:47.873Z,72.10
2019-05-06T00:50:49.541Z,72.30
2019-05-06T00:52:53.942Z,71.50
2019-05-06T00:54:55.997Z,70.60
2019-05-06T00:56:57.745Z,71.70
2019-05-06T00:58:59.413Z,71.30
2019-05-06T01:01:01.378Z,72.40
2019-05-06T01:03:04.243Z,72.40
2019-05-06T01:05:06.429Z,71.50
2019-05-06T01:07:08.113Z,73.20
2019-05-06T01:09:14.156Z,72.10
2019-05-06T01:11:15.909Z,72.90
2019-05-06T01:13:26.506Z,73.30
2019-05-06T01:15:29.390Z,76.60
2019-05-06T01:17:31.068Z,79.70
2019-05-06T01:19:34.213Z,81.50
2019-05-06T01:21:36.233Z,86.50
2019-05-06T01:23:43.731Z,86.20
2019-05-06T01:25:45.640Z,87.60
2019-05-06T01:27:47.308Z,85.90
2019-05-06T01:29:48.981Z,86.80
2019-05-06T01:31:50.936Z,85.90
2019-05-06T01:33:53.530Z,88.70
2019-05-06T01:35:55.375Z,88.00
2019-05-06T01:38:15.354Z,88.90
2019-05-06T01:40:35.905Z,90.20
2019-05-06T01:42:42.177Z,89.80
2019-05-06T01:44:44.335Z,90.00
2019-05-06T01:46:46.128Z,89.60
2019-05-06T01:48:47.808Z,90.40
2019-05-06T01:50:49.572Z,90.10
2019-05-06T01:52:51.265Z,90.30
2019-05-06T01:54:54.204Z,90.70
2019-05-06T01:56:56.215Z,90.30
2019-05-06T01:58:57.876Z,90.80
2019-05-06T02:00:59.549Z,90.70
2019-05-06T02:03:01.220Z,89.00
2019-05-06T02:05:04.770Z,90.00
2019-05-06T02:07:06.834Z,90.70
2019-05-06T02:09:13.774Z,90.60
2019-05-06T02:11:15.545Z,90.80
2019-05-06T02:13:17.221Z,90.70
2019-05-06T02:15:18.893Z,88.70
2019-05-06T02:17:20.806Z,90.80
2019-05-06T02:19:24.198Z,91.00
2019-05-06T02:21:44.185Z,90.80
2019-05-06T02:23:50.924Z,91.50
2019-05-06T02:25:54.084Z,92.10
2019-05-06T02:27:56.026Z,92.20
2019-05-06T02:30:05.650Z,92.90
2019-05-06T02:32:31.522Z,93.20
2019-05-06T02:34:45.783Z,94.20
2019-05-06T02:36:55.981Z,95.20
2019-05-06T02:38:57.665Z,95.50
2019-05-06T02:40:59.406Z,95.80
2019-05-06T02:43:03.288Z,95.00
2019-05-06T02:45:04.967Z,95.40
2019-05-06T02:47:14.733Z,95.50
2019-05-06T02:49:36.417Z,95.40
2019-05-06T02:51:38.094Z,95.10
2019-05-06T02:53:42.738Z,95.10
2019-05-06T02:55:43.337Z,95.30
2019-05-06T02:57:45.015Z,95.30
2019-05-06T02:59:46.674Z,95.90
2019-05-06T03:01:48.324Z,96.80
2019-05-06T03:03:49.995Z,96.90
2019-05-06T03:05:53.175Z,96.80
2019-05-06T03:07:57.749Z,97.10
2019-05-06T03:09:58.878Z,97.10
2019-05-06T03:12:03.569Z,97.30
2019-05-06T03:14:04.475Z,97.10
2019-05-06T03:16:06.208Z,97.40
2019-05-06T03:18:08.456Z,97.60
2019-05-06T03:20:14.850Z,97.10
2019-05-06T03:22:29.617Z,97.10
2019-05-06T03:24:54.191Z,97.20
2019-05-06T03:26:56.978Z,97.20
2019-05-06T03:28:58.157Z,97.10
2019-05-06T03:31:05.998Z,96.50
2019-05-06T03:35:25.260Z,97.00
2019-05-06T03:37:16.190Z,97.10
2019-05-06T03:39:14.406Z,97.20
2019-05-06T03:41:16.366Z,97.20
2019-05-06T03:43:18.054Z,97.20
2019-05-06T03:45:27.036Z,97.30
2019-05-06T03:47:54.516Z,97.20
2019-05-06T03:49:56.772Z,97.20
2019-05-06T03:51:58.728Z,97.50
2019-05-06T03:54:03.284Z,97.20
2019-05-06T03:56:03.982Z,97.40
2019-05-06T03:58:05.645Z,97.70
2019-05-06T04:00:09.017Z,98.00
2019-05-06T04:02:13.223Z,98.00
2019-05-06T04:04:14.579Z,97.50
2019-05-06T04:06:16.250Z,98.10
2019-05-06T04:08:20.236Z,97.70
2019-05-06T04:10:22.833Z,97.90
2019-05-06T04:12:25.083Z,97.90
2019-05-06T04:14:26.802Z,98.20
2019-05-06T04:16:53.248Z,98.40
2019-05-06T04:19:33.133Z,98.20
2019-05-06T04:21:43.670Z,98.40
2019-05-06T04:23:54.116Z,98.60
2019-05-06T04:26:15.533Z,98.10
2019-05-06T04:28:19.554Z,98.00
2019-05-06T04:30:24.038Z,98.40
2019-05-06T04:32:24.797Z,98.40
2019-05-06T04:34:26.786Z,98.10
2019-05-06T04:36:28.881Z,98.10
2019-05-06T04:38:33.646Z,97.10
2019-05-06T04:40:35.052Z,97.40
2019-05-06T04:42:36.959Z,97.50
2019-05-06T04:44:38.748Z,97.10
2019-05-06T04:46:44.016Z,97.50
2019-05-06T04:48:45.694Z,97.10
2019-05-06T04:50:47.375Z,96.60
2019-05-06T04:53:04.540Z,96.60
2019-05-06T04:55:05.164Z,95.80
2019-05-06T04:57:06.901Z,96.50
2019-05-06T04:59:08.903Z,95.70
2019-05-06T05:01:13.026Z,95.90
2019-05-06T05:03:14.330Z,95.50
2019-05-06T05:05:16.234Z,95.80
2019-05-06T05:07:17.906Z,96.40
2019-05-06T05:09:22.860Z,96.40
2019-05-06T05:11:43.485Z,96.10
2019-05-06T05:14:03.026Z,96.10
2019-05-06T05:16:12.781Z,96.80
2019-05-06T05:18:33.701Z,96.70
2019-05-06T05:20:39.664Z,97.70
2019-05-06T05:22:38.952Z,96.20
2019-05-06T05:24:42.470Z,96.70
2019-05-06T05:26:47.065Z,95.80
2019-05-06T05:28:47.766Z,95.70
2019-05-06T05:30:49.550Z,94.50
2019-05-06T05:32:52.087Z,94.30
2019-05-06T05:34:54.393Z,93.40
2019-05-06T05:36:56.052Z,93.90
2019-05-06T05:38:57.737Z,91.80
2019-05-06T05:40:59.409Z,91.90
2019-05-06T05:43:24.120Z,91.70
2019-05-06T05:45:25.801Z,90.80
2019-05-06T05:47:27.461Z,90.50
2019-05-06T05:49:47.602Z,91.10
2019-05-06T05:51:49.284Z,92.00
2019-05-06T05:53:52.290Z,89.50
2019-05-06T05:55:54.472Z,84.40
2019-05-06T05:57:56.170Z,89.30
2019-05-06T05:59:57.842Z,87.40
2019-05-06T06:01:59.913Z,85.50
2019-05-06T06:04:03.035Z,82.70
2019-05-06T06:06:05.253Z,87.30
2019-05-06T06:08:06.930Z,80.70
2019-05-06T06:10:29.196Z,87.70
2019-05-06T06:12:32.420Z,83.10
2019-05-06T06:14:55.254Z,80.60
2019-05-06T06:17:19.109Z,80.00
2019-05-06T06:19:35.614Z,81.20
2019-05-06T06:21:42.654Z,76.00
2019-05-06T06:23:45.073Z,81.20
2019-05-06T06:25:46.741Z,69.70
2019-05-06T06:27:49.301Z,75.60
2019-05-06T06:29:52.743Z,75.70
2019-05-06T06:32:13.814Z,67.50
2019-05-06T06:34:22.273Z,64.40
2019-05-06T06:36:36.953Z,64.00
2019-05-06T06:39:03.962Z,66.90
2019-05-06T06:41:05.641Z,59.10
2019-05-06T06:43:12.966Z,49.00
2019-05-06T06:45:14.930Z,55.70
2019-05-06T06:47:16.949Z,45.80
2019-05-06T06:49:18.612Z,52.60
2019-05-06T06:51:20.299Z,54.70
2019-05-06T06:53:21.969Z,44.80
2019-05-06T06:55:23.635Z,52.80
2019-05-06T06:57:34.344Z,51.70
2019-05-06T06:59:55.157Z,50.50
2019-05-06T07:02:08.009Z,50.00
2019-05-06T07:04:17.180Z,47.20
2019-05-06T07:06:28.685Z,45.10
2019-05-06T07:08:36.617Z,47.90
2019-05-06T07:10:43.303Z,42.10
2019-05-06T07:12:45.057Z,29.40
2019-05-06T07:14:48.629Z,38.40
2019-05-06T07:16:50.297Z,36.90
2019-05-06T07:18:52.582Z,33.60
2019-05-06T07:21:09.033Z,29.40
2019-05-06T07:23:23.055Z,26.10
2019-05-06T07:25:24.741Z,31.00
2019-05-06T07:27:28.205Z,18.60
2019-05-06T07:29:32.631Z,28.90
2019-05-06T07:31:33.949Z,25.10
2019-05-06T07:33:35.633Z,25.80
2019-05-06T07:35:40.850Z,24.40
2019-05-06T07:37:42.309Z,26.50
2019-05-06T07:39:44.190Z,20.00
2019-05-06T07:41:53.285Z,24.00
2019-05-06T07:44:09.841Z,23.20
2019-05-06T07:46:19.058Z,27.30
2019-05-06T07:48:22.114Z,20.70
2019-05-06T07:50:24.105Z,26.50
2019-05-06T07:52:25.787Z,19.80
2019-05-06T07:54:27.441Z,22.80
2019-05-06T07:56:29.121Z,25.90
2019-05-06T07:58:32.267Z,22.00
2019-05-06T08:00:34.261Z,22.00
2019-05-06T08:02:35.938Z,25.20
2019-05-06T08:04:37.597Z,17.80
2019-05-06T08:06:39.530Z,22.70
2019-05-06T08:08:43.392Z,20.30
2019-05-06T08:10:45.004Z,21.80
2019-05-06T08:12:46.782Z,16.90
2019-05-06T08:14:48.449Z,20.10
2019-05-06T08:16:58.124Z,23.20
2019-05-06T08:18:59.800Z,22.10
2019-05-06T08:21:03.651Z,24.50
2019-05-06T08:23:23.440Z,11.90
2019-05-06T08:25:25.210Z,10.00
2019-05-06T08:27:26.900Z,14.60
2019-05-06T08:29:28.556Z,9.80
2019-05-06T08:31:32.669Z,14.30
2019-05-06T08:33:34.118Z,14.10
2019-05-06T08:35:35.790Z,15.10
2019-05-06T08:37:38.405Z,12.20
2019-05-06T08:39:43.783Z,15.50
2019-05-06T08:41:43.881Z,14.00
2019-05-06T08:43:45.790Z,8.30
2019-05-06T08:45:47.452Z,14.90
2019-05-06T08:47:49.116Z,12.70
2019-05-06T08:50:03.531Z,10.10
2019-05-06T08:52:09.258Z,6.60
2019-05-06T08:54:16.786Z,13.50
2019-05-06T08:56:22.031Z,6.20
2019-05-06T08:58:43.550Z,10.40
2019-05-06T09:00:54.455Z,15.10
2019-05-06T09:02:56.675Z,9.70
2019-05-06T09:04:58.344Z,4.20
2019-05-06T09:06:59.996Z,4.50
2019-05-06T09:09:02.794Z,5.10
2019-05-06T09:11:04.458Z,4.30
2019-05-06T09:13:06.133Z,3.70
2019-05-06T09:15:07.792Z,5.60
2019-05-06T09:17:09.558Z,2.70
2019-05-06T09:19:12.864Z,2.40
2019-05-06T09:21:14.844Z,6.60
2019-05-06T09:23:16.507Z,8.80
2019-05-06T09:25:18.169Z,9.40
2019-05-06T09:27:32.690Z,4.50
2019-05-06T09:29:46.552Z,5.30
2019-05-06T09:31:52.205Z,1.00
2019-05-06T09:33:58.929Z,2.30
2019-05-06T09:36:03.241Z,5.20
2019-05-06T09:38:04.479Z,1.00
2019-05-06T09:40:07.810Z,5.90
2019-05-06T09:42:09.479Z,4.80
2019-05-06T09:44:12.445Z,2.50
2019-05-06T09:46:14.534Z,3.40
2019-05-06T09:48:24.855Z,5.20
2019-05-06T09:50:35.117Z,6.30
2019-05-06T09:52:37.368Z,5.80
2019-05-06T09:54:53.568Z,8.60
2019-05-06T09:57:02.404Z,7.60
2019-05-06T09:59:04.442Z,3.20
2019-05-06T10:01:06.115Z,9.00
2019-05-06T10:03:07.797Z,6.50
2019-05-06T10:05:09.459Z,1.00
2019-05-06T10:07:13.301Z,1.00
2019-05-06T10:09:16.110Z,4.10
2019-05-06T10:11:18.348Z,2.50
2019-05-06T10:13:20.034Z,2.30
2019-05-06T10:15:21.700Z,1.00
2019-05-06T10:17:23.352Z,1.00
2019-05-06T10:19:25.020Z,6.20
2019-05-06T10:21:26.694Z,4.00
2019-05-06T10:23:28.364Z,2.30
2019-05-06T10:25:30.033Z,4.40
2019-05-06T10:27:31.701Z,2.80
2019-05-06T10:29:52.199Z,1.00
2019-05-06T10:32:06.162Z,1.00
2019-05-06T10:34:13.283Z,1.00
2019-05-06T10:36:14.961Z,1.00
2019-05-06T10:38:24.555Z,1.00
2019-05-06T10:40:29.313Z,1.00
2019-05-06T10:42:39.324Z,1.00
2019-05-06T10:45:02.853Z,1.00
2019-05-06T10:47:04.517Z,1.00
2019-05-06T10:49:06.512Z,1.00
2019-05-06T10:51:17.532Z,1.00
2019-05-06T10:53:23.634Z,1.00
2019-05-06T10:55:25.517Z,1.00
2019-05-06T10:57:42.944Z,1.00
2019-05-06T10:59:44.709Z,1.00
2019-05-06T11:01:47.711Z,1.00
2019-05-06T11:03:49.402Z,1.00
2019-05-06T11:05:53.272Z,1.00
2019-05-06T11:07:54.707Z,1.00
2019-05-06T11:09:56.377Z,1.00
2019-05-06T11:11:58.046Z,1.00
2019-05-06T11:13:59.731Z,3.00
2019-05-06T11:16:03.417Z,1.00
2019-05-06T11:18:05.321Z,1.00
2019-05-06T11:20:10.521Z,3.80
2019-05-06T11:22:12.724Z,1.00
2019-05-06T11:24:14.377Z,2.70
2019-05-06T11:26:16.145Z,1.00
2019-05-06T11:28:36.293Z,1.00
2019-05-06T11:30:56.430Z,3.20
2019-05-06T11:33:04.792Z,2.70
2019-05-06T11:35:14.901Z,1.00
2019-05-06T11:37:48.312Z,1.60
2019-05-06T11:39:43.086Z,1.30
2019-05-06T11:42:01.377Z,1.00
2019-05-06T11:43:48.604Z,2.10
2019-05-06T11:45:52.087Z,1.60
2019-05-06T11:47:55.778Z,4.00
2019-05-06T11:49:58.417Z,5.20
2019-05-06T11:52:02.204Z,3.70
2019-05-06T11:54:16.459Z,1.00
2019-05-06T11:56:07.478Z,1.00
2019-05-06T11:58:29.106Z,1.00
2019-05-06T12:00:36.161Z,1.00
2019-05-06T12:02:37.835Z,1.00
2019-05-06T12:04:41.830Z,1.00
2019-05-06T12:06:43.317Z,1.00
2019-05-06T12:08:44.989Z,1.00
2019-05-06T12:10:46.657Z,1.00
2019-05-06T12:12:48.329Z,1.00
2019-05-06T12:14:52.497Z,1.00
2019-05-06T12:16:55.118Z,1.00
2019-05-06T12:18:59.765Z,1.00
2019-05-06T12:21:09.169Z,1.00
2019-05-06T12:23:04.815Z,1.00
2019-05-06T12:25:11.335Z,1.00
2019-05-06T12:27:13.780Z,1.00
2019-05-06T12:29:15.439Z,1.00
2019-05-06T12:31:17.205Z,1.00
2019-05-06T12:33:36.526Z,1.00
2019-05-06T12:35:42.697Z,1.00
2019-05-06T12:37:46.566Z,1.00
2019-05-06T12:39:53.466Z,1.00
2019-05-06T12:42:15.246Z,1.00
2019-05-06T12:44:16.914Z,1.00
2019-05-06T12:46:24.313Z,1.00
2019-05-06T12:48:28.918Z,1.00
2019-05-06T12:50:33.046Z,1.00
2019-05-06T12:52:34.149Z,1.00
2019-05-06T12:54:35.809Z,1.00
2019-05-06T12:56:37.472Z,1.00
2019-05-06T12:58:39.162Z,1.00
2019-05-06T13:00:40.945Z,1.00
2019-05-06T13:02:43.644Z,1.00
2019-05-06T13:04:55.151Z,1.00
2019-05-06T13:06:49.526Z,1.00
2019-05-06T13:08:58.818Z,1.00
2019-05-06T13:10:54.882Z,1.00
2019-05-06T13:13:00.599Z,1.00
2019-05-06T13:15:03.791Z,1.00
2019-05-06T13:17:07.280Z,1.00
2019-05-06T13:19:08.944Z,1.00
2019-05-06T13:21:12.735Z,1.00
2019-05-06T13:23:35.060Z,1.00
2019-05-06T13:25:37.576Z,1.00
2019-05-06T13:27:42.579Z,1.00
2019-05-06T13:29:43.397Z,1.00
2019-05-06T13:31:45.084Z,1.00
2019-05-06T13:34:03.399Z,1.80
2019-05-06T13:36:05.486Z,10.30
2019-05-06T13:38:07.157Z,18.10
2019-05-06T13:40:09.076Z,22.00
2019-05-06T13:42:13.302Z,32.00
2019-05-06T13:44:16.587Z,44.70
2019-05-06T13:46:23.762Z,49.40
2019-05-06T13:48:32.414Z,49.10
2019-05-06T13:50:38.339Z,49.10
2019-05-06T13:52:42.496Z,53.30
2019-05-06T13:54:44.333Z,50.50
2019-05-06T13:56:48.961Z,48.60
2019-05-06T13:58:49.580Z,55.10
2019-05-06T14:00:52.014Z,47.70
2019-05-06T14:02:55.330Z,49.30
2019-05-06T14:04:56.994Z,50.20
2019-05-06T14:06:58.656Z,39.00
2019-05-06T14:09:02.433Z,44.10
2019-05-06T14:11:03.897Z,41.40
2019-05-06T14:13:05.562Z,41.10
2019-05-06T14:15:07.225Z,40.90
2019-05-06T14:17:08.896Z,33.40
2019-05-06T14:19:12.994Z,38.00
2019-05-06T14:21:14.792Z,34.00
2019-05-06T14:23:16.753Z,31.70
2019-05-06T14:25:36.833Z,30.90
2019-05-06T14:27:38.787Z,34.50
2019-05-06T14:29:54.890Z,34.70
2019-05-06T14:31:57.080Z,28.40
2019-05-06T14:33:58.769Z,26.30
2019-05-06T14:36:00.439Z,28.70
2019-05-06T14:38:03.360Z,29.10
2019-05-06T14:40:07.384Z,26.80
2019-05-06T14:42:09.068Z,25.00
2019-05-06T14:44:12.203Z,24.80
2019-05-06T14:46:14.344Z,19.20
2019-05-06T14:48:16.126Z,21.90
2019-05-06T14:50:18.393Z,18.80
2019-05-06T14:52:22.401Z,21.10
2019-05-06T14:54:23.730Z,22.40
2019-05-06T14:56:42.800Z,24.60
2019-05-06T14:59:03.100Z,24.00
2019-05-06T15:01:04.763Z,24.40
2019-05-06T15:03:06.782Z,27.60
2019-05-06T15:05:08.473Z,29.50
2019-05-06T15:07:12.529Z,29.30
2019-05-06T15:09:13.713Z,33.10
2019-05-06T15:11:15.386Z,38.60
2019-05-06T15:13:17.057Z,33.50
2019-05-06T15:15:18.721Z,35.50
2019-05-06T15:17:22.640Z,39.30
2019-05-06T15:19:24.007Z,36.80
2019-05-06T15:21:37.038Z,35.10
2019-05-06T15:23:29.576Z,39.30
2019-05-06T15:25:32.711Z,38.60
2019-05-06T15:27:34.810Z,43.50
2019-05-06T15:29:37.051Z,46.10
2019-05-06T15:31:57.062Z,45.60
2019-05-06T15:34:02.589Z,44.30
2019-05-06T15:36:26.806Z,42.50
2019-05-06T15:38:29.193Z,45.90
2019-05-06T15:40:33.833Z,50.40
2019-05-06T15:42:34.682Z,40.10
2019-05-06T15:44:36.345Z,46.90
2019-05-06T15:46:38.018Z,52.50
2019-05-06T15:48:41.547Z,45.80
2019-05-06T15:50:45.645Z,43.60
2019-05-06T15:52:46.845Z,47.20
2019-05-06T15:54:49.105Z,42.80
2019-05-06T15:56:53.251Z,43.90
2019-05-06T15:58:54.941Z,39.90
2019-05-06T16:00:56.601Z,40.20
2019-05-06T16:02:58.582Z,37.60
2019-05-06T16:05:00.258Z,35.10
2019-05-06T16:07:02.871Z,35.10
2019-05-06T16:09:05.241Z,36.30
2019-05-06T16:11:06.910Z,39.10
2019-05-06T16:13:08.580Z,38.20
2019-05-06T16:15:10.241Z,40.00
2019-05-06T16:17:12.318Z,42.10
2019-05-06T16:19:16.099Z,39.20
2019-05-06T16:21:17.864Z,43.60
2019-05-06T16:23:25.536Z,39.40
2019-05-06T16:25:27.199Z,37.00
2019-05-06T16:27:28.857Z,39.80
2019-05-06T16:29:36.745Z,39.60
2019-05-06T16:31:38.409Z,37.80
2019-05-06T16:33:40.089Z,43.60
2019-05-06T16:35:42.626Z,42.00
2019-05-06T16:37:44.616Z,42.00
2019-05-06T16:39:46.297Z,43.10
2019-05-06T16:41:47.965Z,46.70
2019-05-06T16:43:49.637Z,50.50
2019-05-06T16:45:53.236Z,53.80
2019-05-06T16:47:55.119Z,55.40
2019-05-06T16:49:56.798Z,56.40
2019-05-06T16:51:58.463Z,61.60
2019-05-06T16:54:01.939Z,58.80
2019-05-06T16:56:13.420Z,54.50
2019-05-06T16:58:16.565Z,60.50
2019-05-06T17:00:22.460Z,63.90
2019-05-06T17:02:29.849Z,61.60
2019-05-06T17:04:49.020Z,58.80
2019-05-06T17:06:52.411Z,56.90
2019-05-06T17:08:54.321Z,58.90
2019-05-06T17:10:55.985Z,63.80
2019-05-06T17:12:57.657Z,60.90
2019-05-06T17:14:59.332Z,60.80
2019-05-06T17:17:03.295Z,64.20
2019-05-06T17:19:04.907Z,63.60
2019-05-06T17:21:06.568Z,59.20
2019-05-06T17:23:08.525Z,62.40
2019-05-06T17:25:10.217Z,63.10
2019-05-06T17:27:12.152Z,63.20
2019-05-06T17:29:32.630Z,64.70
2019-05-06T17:31:48.589Z,67.00
2019-05-06T17:33:51.882Z,71.20
2019-05-06T17:35:53.881Z,73.60
2019-05-06T17:38:03.057Z,75.70
2019-05-06T17:40:09.987Z,74.10
2019-05-06T17:42:09.485Z,76.00
2019-05-06T17:44:12.210Z,74.00
2019-05-06T17:46:15.864Z,77.60
2019-05-06T17:48:31.739Z,76.90
2019-05-06T17:50:33.423Z,79.00
2019-05-06T17:52:35.178Z,84.00
2019-05-06T17:54:36.861Z,87.60
2019-05-06T17:56:38.520Z,85.10
2019-05-06T17:58:42.322Z,87.40
2019-05-06T18:00:44.072Z,73.10
2019-05-06T18:02:45.737Z,70.80
2019-05-06T18:04:47.412Z,70.10
2019-05-06T18:06:49.078Z,77.10
2019-05-06T18:08:52.698Z,78.20
2019-05-06T18:10:54.315Z,74.70
2019-05-06T18:12:55.982Z,77.90
2019-05-06T18:14:57.665Z,80.90
2019-05-06T18:16:59.336Z,81.30
2019-05-06T18:19:03.039Z,78.80
2019-05-06T18:21:04.597Z,82.60
2019-05-06T18:23:06.256Z,79.80
2019-05-06T18:25:07.941Z,80.50
2019-05-06T18:27:09.597Z,85.30
2019-05-06T18:29:12.558Z,88.90
2019-05-06T18:31:14.645Z,83.10
2019-05-06T18:33:16.318Z,81.70
2019-05-06T18:35:17.996Z,83.00
2019-05-06T18:37:19.968Z,86.60
2019-05-06T18:39:22.292Z,90.50
2019-05-06T18:41:24.534Z,90.80
2019-05-06T18:43:26.460Z,90.50
2019-05-06T18:45:28.145Z,90.10
2019-05-06T18:47:29.811Z,92.30
2019-05-06T18:49:33.601Z,92.20
2019-05-06T18:51:35.660Z,90.40
2019-05-06T18:53:37.913Z,92.00
2019-05-06T18:55:41.678Z,92.40
2019-05-06T18:57:43.474Z,92.00
2019-05-06T18:59:45.156Z,92.90
2019-05-06T19:01:46.825Z,94.20
2019-05-06T19:04:03.325Z,93.60
2019-05-06T19:06:05.014Z,92.50
2019-05-06T19:08:26.371Z,93.50
2019-05-06T19:10:29.142Z,95.50
2019-05-06T19:12:39.841Z,94.80
2019-05-06T19:14:34.637Z,94.60
2019-05-06T19:16:48.842Z,94.30
2019-05-06T19:18:42.458Z,94.60
2019-05-06T19:20:43.549Z,94.60
2019-05-06T19:22:45.248Z,95.90
2019-05-06T19:24:46.992Z,95.70
2019-05-06T19:26:48.664Z,95.60
2019-05-06T19:28:52.576Z,97.50
2019-05-06T19:30:54.167Z,98.60
2019-05-06T19:32:56.181Z,98.20
2019-05-06T19:34:58.472Z,97.20
2019-05-06T19:37:02.282Z,97.60
2019-05-06T19:39:05.345Z,97.20
2019-05-06T19:41:07.121Z,98.50
2019-05-06T19:43:08.790Z,98.80
2019-05-06T19:45:12.850Z,98.70
2019-05-06T19:47:14.042Z,98.10
2019-05-06T19:49:15.704Z,99.20
2019-05-06T19:51:17.381Z,98.40
2019-05-06T19:53:19.052Z,99.20
2019-05-06T19:55:23.017Z,99.80
2019-05-06T19:57:24.925Z,99.70
2019-05-06T19:59:26.588Z,99.20
2019-05-06T20:01:28.269Z,99.90
2019-05-06T20:03:29.932Z,99.60
2019-05-06T20:05:54.194Z,99.20
2019-05-06T20:08:16.556Z,98.90
2019-05-06T20:10:37.961Z,98.10
2019-05-06T20:12:43.527Z,98.30
2019-05-06T20:14:46.396Z,98.70
2019-05-06T20:16:48.073Z,98.60
2019-05-06T20:18:49.745Z,98.10
2019-05-06T20:20:52.845Z,99.20
2019-05-06T20:22:54.813Z,99.90
2019-05-06T20:24:56.472Z,98.60
2019-05-06T20:26:58.162Z,97.80
2019-05-06T20:29:02.050Z,97.50
2019-05-06T20:31:03.501Z,97.90
2019-05-06T20:33:05.183Z,97.80
2019-05-06T20:35:06.859Z,98.50
2019-05-06T20:37:08.533Z,98.60
2019-05-06T20:39:12.239Z,98.80
2019-05-06T20:41:13.788Z,99.10
2019-05-06T20:43:20.431Z,99.90
2019-05-06T20:45:19.027Z,99.40
2019-05-06T20:47:20.817Z,99.90
2019-05-06T20:49:22.812Z,99.90
2019-05-06T20:51:24.493Z,99.90
2019-05-06T20:53:26.161Z,99.90
2019-05-06T20:55:28.554Z,99.90
2019-05-06T20:57:30.236Z,99.90
2019-05-06T20:59:32.293Z,99.90
2019-05-06T21:01:34.621Z,99.90
2019-05-06T21:03:36.289Z,99.90
2019-05-06T21:05:37.952Z,99.90
2019-05-06T21:07:39.624Z,99.90
2019-05-06T21:09:43.140Z,99.90
2019-05-06T21:11:45.161Z,99.90
2019-05-06T21:13:46.825Z,99.90
2019-05-06T21:15:48.792Z,99.90
2019-05-06T21:17:50.456Z,99.90
2019-05-06T21:19:52.128Z,99.90
2019-05-06T21:21:53.800Z,99.90
2019-05-06T21:23:55.473Z,99.90
2019-05-06T21:25:57.141Z,99.90
2019-05-06T21:27:58.817Z,99.90
2019-05-06T21:30:02.512Z,99.90
2019-05-06T21:32:04.092Z,99.90
2019-05-06T21:34:05.749Z,99.90
2019-05-06T21:36:07.444Z,99.90
2019-05-06T21:38:09.129Z,99.90
2019-05-06T21:40:12.324Z,99.90
2019-05-06T21:42:14.522Z,99.90
2019-05-06T21:44:16.189Z,99.90
2019-05-06T21:46:17.865Z,99.90
2019-05-06T21:48:19.519Z,99.90
2019-05-06T21:50:22.784Z,99.90
2019-05-06T21:52:36.234Z,99.90
2019-05-06T21:54:28.353Z,99.90
2019-05-06T21:56:31.935Z,99.90
2019-05-06T21:58:33.597Z,99.90
2019-05-06T22:00:48.844Z,99.90
2019-05-06T22:02:52.762Z,99.90
2019-05-06T22:04:55.588Z,99.90
2019-05-06T22:06:57.672Z,99.90
2019-05-06T22:08:59.593Z,99.90
2019-05-06T22:11:02.936Z,99.90
2019-05-06T22:13:05.129Z,99.90
2019-05-06T22:15:06.809Z,99.90
2019-05-06T22:17:08.501Z,99.90
2019-05-06T22:19:12.125Z,99.90
2019-05-06T22:21:18.981Z,99.90
2019-05-06T22:23:22.167Z,99.90
2019-05-06T22:25:24.229Z,99.90
2019-05-06T22:27:28.996Z,99.90
2019-05-06T22:29:32.975Z,99.90
2019-05-06T22:31:34.250Z,99.90
2019-05-06T22:33:35.920Z,99.90
2019-05-06T22:35:37.593Z,99.90
2019-05-06T22:37:39.269Z,99.90
2019-05-06T22:39:43.264Z,99.90
2019-05-06T22:41:44.522Z,99.90
2019-05-06T22:43:46.436Z,99.90
2019-05-06T22:45:48.110Z,99.90
2019-05-06T22:47:49.789Z,99.90
2019-05-06T22:49:54.040Z,99.90
2019-05-06T22:51:55.033Z,99.90
2019-05-06T22:53:56.714Z,99.90
2019-05-06T22:56:02.552Z,99.90
2019-05-06T22:58:04.041Z,99.00
2019-05-06T23:00:07.557Z,99.90
2019-05-06T23:02:17.469Z,99.90
2019-05-06T23:04:21.735Z,99.90
2019-05-06T23:06:23.704Z,99.90
2019-05-06T23:08:26.834Z,99.90
2019-05-06T23:10:28.644Z,99.90
2019-05-06T23:12:32.434Z,99.90
2019-05-06T23:14:36.919Z,99.90
2019-05-06T23:16:37.446Z,99.90
2019-05-06T23:18:39.132Z,99.90
2019-05-06T23:20:42.909Z,99.90
2019-05-06T23:22:44.551Z,99.90
2019-05-06T23:24:46.216Z,99.90
2019-05-06T23:26:47.942Z,99.90
2019-05-06T23:28:49.645Z,99.90
2019-05-06T23:30:52.355Z,99.90
2019-05-06T23:32:54.389Z,99.90
2019-05-06T23:34:56.365Z,99.90
2019-05-06T23:37:26.809Z,99.90
2019-05-06T23:40:07.278Z,99.90
2019-05-06T23:42:52.611Z,99.90
2019-05-06T23:45:32.464Z,99.90
2019-05-06T23:48:12.113Z,99.90
2019-05-06T23:50:51.113Z,99.90
2019-05-06T23:53:29.512Z,99.90
2019-05-06T23:56:08.022Z,99.90
2019-05-06T23:58:09.057Z,99.90
